Time;durP1;ratioP1;P1;durP2;ratioP2;P2;SDS_P1;SDS_P2;PMS_P1;PMS_P2;Temp;Humidity;BMP_temperature;BMP_pressure;BME280_temperature;BME280_humidity;BME280_pressure;Samples;Min_cycle;Max_cycle;Signal;HPM_P1;HPM_P2
2023/09/12 00:01:09;;;;;;;4.32;1.63;;;19.10;99.90;;;;;;5059477;28;20072;-69
2023/09/12 00:03:35;;;;;;;4.15;2.00;;;19.10;99.90;;;;;;5060400;28;20404;-70
2023/09/12 00:06:02;;;;;;;2.67;1.33;;;19.00;99.90;;;;;;5059353;28;20036;-69
2023/09/12 00:08:28;;;;;;;2.13;1.27;;;19.00;99.90;;;;;;5060638;28;20049;-69
2023/09/12 00:11:10;;;;;;;2.03;1.25;;;19.00;99.90;;;;;;5051830;28;20485;-69
2023/09/12 00:13:37;;;;;;;3.35;1.58;;;18.90;99.90;;;;;;5064462;28;20120;-70
2023/09/12 00:16:05;;;;;;;3.63;1.83;;;18.90;99.90;;;;;;5056716;28;20043;-69
2023/09/12 00:18:30;;;;;;;2.00;1.30;;;18.90;99.90;;;;;;5058382;28;20041;-69
2023/09/12 00:20:56;;;;;;;3.72;1.23;;;18.90;99.90;;;;;;5055983;28;20048;-70
2023/09/12 00:23:23;;;;;;;2.90;1.33;;;18.90;99.90;;;;;;5061157;28;20053;-69
2023/09/12 00:25:51;;;;;;;2.95;1.58;;;18.90;99.90;;;;;;5058665;28;20500;-70
2023/09/12 00:28:17;;;;;;;3.70;1.50;;;18.90;99.90;;;;;;5057099;28;20044;-70
2023/09/12 00:30:43;;;;;;;4.80;1.52;;;18.90;99.90;;;;;;5062155;28;20052;-70
2023/09/12 00:33:09;;;;;;;4.40;2.08;;;18.80;99.90;;;;;;5058144;28;20535;-70
2023/09/12 00:35:34;;;;;;;4.13;1.80;;;18.80;99.90;;;;;;5059432;28;20041;-70
2023/09/12 00:38:00;;;;;;;1.88;1.33;;;18.80;99.90;;;;;;5057267;28;20037;-70
2023/09/12 00:40:26;;;;;;;2.80;1.55;;;18.80;99.90;;;;;;5089974;28;20080;-70
2023/09/12 00:42:52;;;;;;;2.15;0.90;;;18.70;99.90;;;;;;5060851;28;20518;-71
2023/09/12 00:45:17;;;;;;;4.15;1.23;;;18.80;99.90;;;;;;5058398;28;20412;-71
2023/09/12 00:47:44;;;;;;;4.18;2.15;;;18.70;99.90;;;;;;5043578;28;20056;-71
2023/09/12 00:50:10;;;;;;;2.72;1.10;;;18.70;99.90;;;;;;5058636;28;20060;-71
2023/09/12 00:52:38;;;;;;;2.60;1.60;;;18.70;99.90;;;;;;5055123;28;20041;-71
2023/09/12 00:55:04;;;;;;;3.58;2.17;;;18.60;99.90;;;;;;5089341;28;20072;-71
2023/09/12 00:57:31;;;;;;;4.90;1.85;;;18.60;99.90;;;;;;5058192;28;20071;-71
2023/09/12 00:59:58;;;;;;;2.78;1.45;;;18.60;99.90;;;;;;5057604;28;20507;-71
2023/09/12 01:02:25;;;;;;;2.97;1.65;;;18.60;99.90;;;;;;5057053;28;20048;-71
2023/09/12 01:04:51;;;;;;;2.55;1.25;;;18.60;99.90;;;;;;5054036;28;20033;-70
2023/09/12 01:07:17;;;;;;;2.78;1.75;;;18.60;99.90;;;;;;5055854;28;20029;-71
2023/09/12 01:09:43;;;;;;;3.47;1.70;;;18.60;99.90;;;;;;5092465;28;20480;-71
2023/09/12 01:12:08;;;;;;;4.38;2.08;;;18.70;99.90;;;;;;5052480;28;20107;-71
2023/09/12 01:14:34;;;;;;;2.75;1.70;;;18.60;99.90;;;;;;5065605;28;20392;-71
2023/09/12 01:17:03;;;;;;;2.88;1.58;;;18.60;99.90;;;;;;5053968;28;20044;-70
2023/09/12 01:19:29;;;;;;;2.53;1.10;;;18.50;99.90;;;;;;5059812;28;20045;-71
2023/09/12 01:22:07;;;;;;;2.85;1.55;;;18.50;99.90;;;;;;5057923;28;20048;-70
2023/09/12 01:24:49;;;;;;;3.45;1.48;;;18.50;99.90;;;;;;5076362;28;20540;-71
2023/09/12 01:27:42;;;;;;;3.28;1.60;;;18.40;99.90;;;;;;5053374;28;20040;-71
2023/09/12 01:30:09;;;;;;;3.90;1.65;;;18.30;99.90;;;;;;5052470;28;20525;-71
2023/09/12 01:32:37;;;;;;;4.28;1.98;;;18.30;99.90;;;;;;5055557;28;20044;-71
2023/09/12 01:35:03;;;;;;;2.95;1.40;;;18.30;99.90;;;;;;5057973;28;20126;-71
2023/09/12 01:37:30;;;;;;;2.97;1.48;;;18.30;99.90;;;;;;5086696;28;20493;-70
2023/09/12 01:39:56;;;;;;;2.33;1.33;;;18.30;99.90;;;;;;5058816;28;20041;-70
2023/09/12 01:42:22;;;;;;;3.03;1.60;;;18.20;99.90;;;;;;5088049;28;20463;-70
2023/09/12 01:44:56;;;;;;;3.10;1.13;;;18.20;99.90;;;;;;5054007;28;20489;-70
2023/09/12 01:47:23;;;;;;;3.38;1.38;;;18.20;99.90;;;;;;5062309;28;20053;-71
2023/09/12 01:49:54;;;;;;;4.22;1.67;;;18.10;99.90;;;;;;5053904;28;20102;-71
2023/09/12 01:52:21;;;;;;;3.20;1.50;;;18.10;99.90;;;;;;5056056;28;20037;-70
2023/09/12 01:54:49;;;;;;;3.03;1.50;;;18.10;99.90;;;;;;5087769;28;20048;-71
2023/09/12 01:57:15;;;;;;;3.00;1.77;;;18.00;99.90;;;;;;5090843;28;20049;-72
2023/09/12 01:59:41;;;;;;;8.68;2.25;;;18.00;99.90;;;;;;5052955;28;20400;-71
2023/09/12 02:02:07;;;;;;;4.75;1.23;;;18.00;99.90;;;;;;5054035;28;20525;-71
2023/09/12 02:04:33;;;;;;;2.95;1.48;;;17.90;99.90;;;;;;5052638;28;20051;-72
2023/09/12 02:06:59;;;;;;;2.88;1.23;;;18.00;99.90;;;;;;5084412;28;20029;-71
2023/09/12 02:09:25;;;;;;;3.60;1.83;;;18.00;99.90;;;;;;5053660;28;20045;-71
2023/09/12 02:11:51;;;;;;;4.28;1.55;;;18.00;99.90;;;;;;5054880;28;20048;-72
2023/09/12 02:14:19;;;;;;;2.80;1.40;;;18.00;99.90;;;;;;5087435;28;20129;-71
2023/09/12 02:16:45;;;;;;;3.40;1.45;;;18.10;99.90;;;;;;5056240;28;20036;-72
2023/09/12 02:19:11;;;;;;;2.78;1.13;;;18.10;99.90;;;;;;5051540;28;20535;-71
2023/09/12 02:21:36;;;;;;;2.80;1.15;;;18.10;99.90;;;;;;5053892;28;20508;-71
2023/09/12 02:24:02;;;;;;;3.60;1.67;;;18.10;99.90;;;;;;5057329;28;20041;-71
2023/09/12 02:26:28;;;;;;;3.08;1.25;;;18.20;99.90;;;;;;5033699;28;20045;-71
2023/09/12 02:28:54;;;;;;;4.22;1.63;;;18.20;99.90;;;;;;5054600;28;20049;-72
2023/09/12 02:31:19;;;;;;;3.55;1.15;;;18.20;99.90;;;;;;5090328;28;20029;-71
2023/09/12 02:33:45;;;;;;;2.92;1.40;;;18.20;99.90;;;;;;5056237;28;20384;-71
2023/09/12 02:36:11;;;;;;;3.28;1.10;;;18.30;99.90;;;;;;5069255;28;20492;-70
2023/09/12 02:38:36;;;;;;;2.05;1.15;;;18.30;99.90;;;;;;5056213;28;20408;-70
2023/09/12 02:41:02;;;;;;;1.88;1.27;;;18.30;99.90;;;;;;5051936;28;20298;-70
2023/09/12 02:43:28;;;;;;;3.05;1.40;;;18.30;99.90;;;;;;5049474;28;20049;-70
2023/09/12 02:45:55;;;;;;;3.13;1.98;;;18.20;99.90;;;;;;5087923;28;20052;-70
2023/09/12 02:48:21;;;;;;;3.97;1.42;;;18.10;99.90;;;;;;5054425;28;20067;-70
2023/09/12 02:50:46;;;;;;;5.03;2.00;;;18.20;99.90;;;;;;5057514;28;20401;-70
2023/09/12 02:53:12;;;;;;;3.90;1.58;;;18.10;99.90;;;;;;5050346;28;20156;-70
2023/09/12 02:55:42;;;;;;;4.00;1.55;;;18.10;99.90;;;;;;5089603;28;20041;-70
2023/09/12 02:58:08;;;;;;;1.20;0.70;;;18.10;99.90;;;;;;5055743;28;20033;-70
2023/09/12 03:00:40;;;;;;;2.15;1.10;;;18.00;99.90;;;;;;5055645;28;20114;-70
2023/09/12 03:03:07;;;;;;;1.25;0.88;;;18.00;99.90;;;;;;5057567;28;20368;-70
2023/09/12 03:05:32;;;;;;;2.72;1.13;;;17.90;99.90;;;;;;5056435;28;20080;-71
2023/09/12 03:07:58;;;;;;;1.70;1.02;;;17.90;99.90;;;;;;5055522;28;20064;-70
2023/09/12 03:10:24;;;;;;;2.38;1.33;;;17.90;99.90;;;;;;5053511;28;20432;-70
2023/09/12 03:12:49;;;;;;;2.33;1.30;;;17.90;99.90;;;;;;5064661;28;20033;-71
2023/09/12 03:15:15;;;;;;;2.92;1.20;;;17.90;99.90;;;;;;5037139;28;20485;-71
2023/09/12 03:17:41;;;;;;;1.95;0.90;;;17.90;99.90;;;;;;5054640;28;20049;-71
2023/09/12 03:20:09;;;;;;;2.28;1.30;;;17.90;99.90;;;;;;5056507;28;20044;-71
2023/09/12 03:22:37;;;;;;;2.65;1.13;;;17.90;99.90;;;;;;5057763;28;20075;-71
2023/09/12 03:25:06;;;;;;;2.80;1.45;;;17.90;99.90;;;;;;5059704;28;20037;-71
2023/09/12 03:27:32;;;;;;;2.05;0.98;;;17.90;99.90;;;;;;5093349;28;20043;-71
2023/09/12 03:29:58;;;;;;;2.22;1.10;;;17.90;99.90;;;;;;5094041;28;20037;-71
2023/09/12 03:32:24;;;;;;;1.70;1.15;;;17.80;99.90;;;;;;5060811;28;20036;-70
2023/09/12 03:34:50;;;;;;;2.70;1.23;;;17.90;99.90;;;;;;5060194;28;20124;-71
2023/09/12 03:37:15;;;;;;;2.03;0.95;;;17.90;99.90;;;;;;5047941;28;20040;-70
2023/09/12 03:39:41;;;;;;;2.95;0.93;;;17.90;99.90;;;;;;5059507;28;20049;-71
2023/09/12 03:42:07;;;;;;;2.28;1.25;;;17.90;99.90;;;;;;5055606;28;20032;-71
2023/09/12 03:44:32;;;;;;;2.67;1.17;;;17.90;99.90;;;;;;5064496;28;20370;-71
2023/09/12 03:46:58;;;;;;;2.50;1.45;;;17.90;99.90;;;;;;5059841;28;20089;-70
2023/09/12 03:49:24;;;;;;;3.08;1.40;;;17.90;99.90;;;;;;5063743;28;20088;-71
2023/09/12 03:51:50;;;;;;;2.42;1.05;;;17.90;99.90;;;;;;5060046;28;20033;-71
2023/09/12 03:54:15;;;;;;;1.55;0.82;;;17.90;99.90;;;;;;5060824;28;20058;-71
2023/09/12 03:56:41;;;;;;;2.45;1.02;;;17.90;99.90;;;;;;5060257;28;20448;-71
2023/09/12 03:59:07;;;;;;;2.42;1.30;;;17.80;99.90;;;;;;5061806;28;20072;-71
2023/09/12 04:01:33;;;;;;;1.48;0.80;;;17.90;99.90;;;;;;5059989;28;20040;-70
2023/09/12 04:03:58;;;;;;;4.40;2.05;;;17.80;99.90;;;;;;5057980;28;20416;-71
2023/09/12 04:06:24;;;;;;;1.60;0.90;;;17.80;99.90;;;;;;5060312;28;20063;-71
2023/09/12 04:08:50;;;;;;;1.52;0.98;;;17.80;99.90;;;;;;5058465;28;20095;-72
2023/09/12 04:11:15;;;;;;;2.58;1.25;;;17.80;99.90;;;;;;5053923;28;20048;-71
2023/09/12 04:13:41;;;;;;;1.55;1.10;;;17.80;99.90;;;;;;5065454;28;20045;-71
2023/09/12 04:16:07;;;;;;;2.15;1.20;;;17.80;99.90;;;;;;5091544;28;20500;-71
2023/09/12 04:18:32;;;;;;;1.83;1.17;;;17.80;99.90;;;;;;5056077;28;20192;-71
2023/09/12 04:20:58;;;;;;;1.25;0.60;;;17.90;99.90;;;;;;5040926;28;20146;-71
2023/09/12 04:23:27;;;;;;;4.45;1.38;;;17.80;99.90;;;;;;5061617;28;20106;-71
2023/09/12 04:25:52;;;;;;;2.95;1.15;;;17.90;99.90;;;;;;5051327;28;20110;-71
2023/09/12 04:28:18;;;;;;;2.05;0.98;;;17.80;99.90;;;;;;5061897;28;20033;-71
2023/09/12 04:30:44;;;;;;;2.38;1.25;;;17.80;99.90;;;;;;5060977;28;20033;-71
2023/09/12 04:33:09;;;;;;;2.38;1.00;;;17.80;99.90;;;;;;5060408;28;20033;-71
2023/09/12 04:35:35;;;;;;;2.63;1.35;;;17.80;99.90;;;;;;5058298;28;20044;-71
2023/09/12 04:38:02;;;;;;;3.30;1.13;;;17.80;99.90;;;;;;5055799;28;20040;-72
2023/09/12 04:40:28;;;;;;;3.45;1.52;;;17.80;99.90;;;;;;5088530;28;20045;-72
2023/09/12 04:42:54;;;;;;;3.47;1.50;;;17.80;99.90;;;;;;5044069;28;20037;-71
2023/09/12 04:45:19;;;;;;;3.85;1.50;;;17.80;99.90;;;;;;5059445;28;20044;-71
2023/09/12 04:47:45;;;;;;;2.45;1.42;;;17.80;99.90;;;;;;5063259;28;20032;-71
2023/09/12 04:50:13;;;;;;;2.53;1.25;;;17.80;99.90;;;;;;5058042;28;20095;-72
2023/09/12 04:52:39;;;;;;;3.45;1.30;;;17.80;99.90;;;;;;5043060;28;20036;-71
2023/09/12 04:55:05;;;;;;;2.53;1.40;;;17.80;99.90;;;;;;5062883;28;20052;-72
2023/09/12 04:57:31;;;;;;;2.90;1.33;;;17.80;99.90;;;;;;5056418;28;20441;-72
2023/09/12 04:59:58;;;;;;;2.78;1.38;;;17.80;99.90;;;;;;5057520;28;20044;-71
2023/09/12 05:02:25;;;;;;;4.00;1.55;;;17.80;99.90;;;;;;5059362;28;20091;-72
2023/09/12 05:04:51;;;;;;;2.03;1.20;;;17.70;99.90;;;;;;5062974;28;20397;-72
2023/09/12 05:07:17;;;;;;;1.77;1.08;;;17.70;99.90;;;;;;5055234;28;20036;-71
2023/09/12 05:09:42;;;;;;;2.55;1.83;;;17.70;99.90;;;;;;5055346;28;20067;-71
2023/09/12 05:12:08;;;;;;;3.22;1.48;;;17.70;99.90;;;;;;5055673;28;20115;-71
2023/09/12 05:14:34;;;;;;;2.40;1.13;;;17.70;99.90;;;;;;5059836;28;20644;-71
2023/09/12 05:17:01;;;;;;;4.88;1.65;;;17.70;99.90;;;;;;5038174;28;20040;-71
2023/09/12 05:19:27;;;;;;;4.07;1.58;;;17.70;99.90;;;;;;5059969;28;20044;-71
2023/09/12 05:21:53;;;;;;;3.70;1.17;;;17.70;99.90;;;;;;5056938;28;20063;-71
2023/09/12 05:24:19;;;;;;;4.13;1.45;;;17.70;99.90;;;;;;5073445;28;20250;-72
2023/09/12 05:26:44;;;;;;;3.50;1.50;;;17.70;99.90;;;;;;5056575;28;20052;-72
2023/09/12 05:29:10;;;;;;;3.13;1.33;;;17.70;99.90;;;;;;5057279;28;20129;-72
2023/09/12 05:31:36;;;;;;;3.13;1.38;;;17.70;99.90;;;;;;5062392;28;20123;-71
2023/09/12 05:34:01;;;;;;;2.55;1.30;;;17.70;99.90;;;;;;5057219;28;20145;-71
2023/09/12 05:36:27;;;;;;;1.80;0.95;;;17.70;99.90;;;;;;5037115;28;20048;-71
2023/09/12 05:38:53;;;;;;;3.28;1.60;;;17.70;99.90;;;;;;5053185;28;20040;-71
2023/09/12 05:41:18;;;;;;;2.50;1.08;;;17.70;99.90;;;;;;5093778;28;20452;-71
2023/09/12 05:43:44;;;;;;;4.75;1.70;;;17.70;99.90;;;;;;5062278;28;20123;-71
2023/09/12 05:46:10;;;;;;;2.58;1.40;;;17.70;99.90;;;;;;5058969;28;20051;-71
2023/09/12 05:48:36;;;;;;;3.60;1.52;;;17.80;99.90;;;;;;5052821;28;20060;-71
2023/09/12 05:51:02;;;;;;;2.95;1.27;;;17.70;99.90;;;;;;5058067;28;20533;-71
2023/09/12 05:53:27;;;;;;;3.30;1.25;;;17.70;99.90;;;;;;5059114;28;20571;-71
2023/09/12 05:55:53;;;;;;;3.38;1.73;;;17.70;99.90;;;;;;5036429;28;20036;-71
2023/09/12 05:58:19;;;;;;;3.65;1.40;;;17.80;99.90;;;;;;5058200;28;20033;-71
2023/09/12 06:00:47;;;;;;;2.25;0.95;;;17.80;99.90;;;;;;5056676;28;20068;-71
2023/09/12 06:03:15;;;;;;;3.67;2.05;;;17.80;99.90;;;;;;5057881;28;20580;-71
2023/09/12 06:05:41;;;;;;;2.58;1.45;;;17.90;99.90;;;;;;5053508;28;20036;-71
2023/09/12 06:08:07;;;;;;;2.13;1.42;;;17.90;99.90;;;;;;5055642;28;20097;-71
2023/09/12 06:10:33;;;;;;;2.55;1.23;;;17.90;99.90;;;;;;5052939;28;20048;-70
2023/09/12 06:12:59;;;;;;;4.55;1.58;;;17.90;99.90;;;;;;5061245;28;20037;-70
2023/09/12 06:15:25;;;;;;;3.08;1.60;;;17.90;99.90;;;;;;5052627;28;20094;-71
2023/09/12 06:17:51;;;;;;;3.97;1.40;;;17.90;99.90;;;;;;5061933;28;20041;-72
2023/09/12 06:20:17;;;;;;;3.67;1.23;;;17.90;99.90;;;;;;5059642;28;20039;-72
2023/09/12 06:22:43;;;;;;;3.28;1.30;;;17.90;99.90;;;;;;5042082;28;20045;-72
2023/09/12 06:25:09;;;;;;;3.42;1.63;;;17.90;99.90;;;;;;5057931;28;20202;-72
2023/09/12 06:27:35;;;;;;;3.05;1.60;;;17.90;99.90;;;;;;5058122;28;20075;-72
2023/09/12 06:30:01;;;;;;;5.93;1.92;;;18.00;99.90;;;;;;5056554;28;20039;-72
2023/09/12 06:32:26;;;;;;;4.95;1.73;;;18.00;99.90;;;;;;5090229;28;20103;-71
2023/09/12 06:34:53;;;;;;;5.82;1.67;;;18.00;99.90;;;;;;5053762;28;20087;-71
2023/09/12 06:37:18;;;;;;;4.45;2.40;;;18.10;99.90;;;;;;5091348;28;20117;-71
2023/09/12 06:39:44;;;;;;;2.90;1.23;;;18.20;99.90;;;;;;5058292;28;20045;-71
2023/09/12 06:42:10;;;;;;;4.90;1.98;;;18.30;99.90;;;;;;5055468;28;20044;-71
2023/09/12 06:44:35;;;;;;;3.50;1.65;;;18.40;99.90;;;;;;5057604;28;20045;-71
2023/09/12 06:47:06;;;;;;;7.65;2.28;;;18.40;99.90;;;;;;5059642;28;20040;-71
2023/09/12 06:49:32;;;;;;;3.70;1.55;;;18.60;99.90;;;;;;5059201;28;20052;-71
2023/09/12 06:51:58;;;;;;;3.85;1.65;;;18.70;99.90;;;;;;5052971;28;20068;-71
2023/09/12 06:54:24;;;;;;;4.45;1.70;;;18.80;99.90;;;;;;5045049;28;20504;-71
2023/09/12 06:56:49;;;;;;;4.15;1.85;;;18.90;99.90;;;;;;5055868;28;20054;-71
2023/09/12 06:59:15;;;;;;;5.05;1.85;;;19.00;99.90;;;;;;5062684;28;20078;-70
2023/09/12 07:01:41;;;;;;;3.42;1.88;;;19.10;99.90;;;;;;5057831;28;20044;-70
2023/09/12 07:04:06;;;;;;;4.20;1.60;;;19.30;99.90;;;;;;5053913;28;20041;-70
2023/09/12 07:06:33;;;;;;;5.80;1.77;;;19.40;99.90;;;;;;5063038;28;20456;-71
2023/09/12 07:08:59;;;;;;;6.32;1.85;;;19.50;99.90;;;;;;5091295;28;20126;-71
2023/09/12 07:11:24;;;;;;;4.53;1.98;;;19.70;99.90;;;;;;5052059;28;20049;-71
2023/09/12 07:13:50;;;;;;;3.55;1.67;;;19.80;99.90;;;;;;5041923;28;20037;-71
2023/09/12 07:16:16;;;;;;;2.25;1.27;;;19.90;99.90;;;;;;5055812;28;20456;-71
2023/09/12 07:18:41;;;;;;;4.72;2.03;;;19.90;99.90;;;;;;5052582;28;20033;-70
2023/09/12 07:21:07;;;;;;;5.00;2.20;;;19.90;99.90;;;;;;5051946;28;20037;-71
2023/09/12 07:23:33;;;;;;;3.20;1.70;;;19.80;99.90;;;;;;5056431;28;20051;-71
2023/09/12 07:25:59;;;;;;;4.13;1.77;;;19.90;99.90;;;;;;5054900;28;20120;-71
2023/09/12 07:28:26;;;;;;;3.35;1.75;;;19.90;99.90;;;;;;5055286;28;20043;-71
2023/09/12 07:30:53;;;;;;;5.82;1.95;;;20.00;99.90;;;;;;5052863;28;20136;-70
2023/09/12 07:33:20;;;;;;;4.78;1.88;;;20.00;99.90;;;;;;5053668;28;20048;-70
2023/09/12 07:35:46;;;;;;;3.13;1.58;;;20.00;99.90;;;;;;5056977;28;20115;-71
2023/09/12 07:38:15;;;;;;;4.65;1.88;;;20.00;99.90;;;;;;5056268;28;20484;-70
2023/09/12 07:40:41;;;;;;;5.13;2.45;;;20.00;99.90;;;;;;5055781;28;20492;-70
2023/09/12 07:43:07;;;;;;;4.50;2.15;;;20.10;99.90;;;;;;5058346;28;20059;-70
2023/09/12 07:45:36;;;;;;;5.22;2.10;;;20.20;99.90;;;;;;5063293;28;20045;-70
2023/09/12 07:48:05;;;;;;;4.63;2.20;;;20.30;99.90;;;;;;5063713;28;20489;-70
2023/09/12 07:50:31;;;;;;;3.83;2.05;;;20.50;99.90;;;;;;5056475;28;20079;-70
2023/09/12 07:52:57;;;;;;;3.58;1.63;;;20.50;99.90;;;;;;5054945;28;20041;-70
2023/09/12 07:55:22;;;;;;;2.85;1.63;;;20.50;99.90;;;;;;5055337;28;20037;-70
2023/09/12 07:57:48;;;;;;;3.85;1.85;;;20.50;99.90;;;;;;5053743;28;20504;-70
2023/09/12 08:00:14;;;;;;;4.32;1.88;;;20.50;99.90;;;;;;5057994;28;20086;-70
2023/09/12 08:02:40;;;;;;;2.80;1.83;;;20.50;99.90;;;;;;5056824;28;20036;-70
2023/09/12 08:05:07;;;;;;;3.05;1.83;;;20.40;99.90;;;;;;5057851;28;20119;-70
2023/09/12 08:07:33;;;;;;;3.22;1.20;;;20.40;99.90;;;;;;5051990;28;20037;-70
2023/09/12 08:09:59;;;;;;;3.53;1.58;;;20.40;99.90;;;;;;5057007;28;20040;-70
2023/09/12 08:12:26;;;;;;;3.17;1.60;;;20.30;99.90;;;;;;5062249;28;20043;-70
2023/09/12 08:14:53;;;;;;;3.80;2.17;;;20.20;99.90;;;;;;5057888;28;20053;-70
2023/09/12 08:17:19;;;;;;;3.40;1.70;;;20.20;99.90;;;;;;5056605;28;20041;-70
2023/09/12 08:19:45;;;;;;;3.72;1.67;;;20.10;99.90;;;;;;5058307;28;20032;-70
2023/09/12 08:22:12;;;;;;;3.35;1.73;;;20.10;99.90;;;;;;5060654;28;20076;-70
2023/09/12 08:24:41;;;;;;;4.13;2.13;;;20.10;99.90;;;;;;5056828;28;20145;-70
2023/09/12 08:27:08;;;;;;;3.63;1.95;;;20.00;99.90;;;;;;5057511;28;20036;-70
2023/09/12 08:29:35;;;;;;;4.63;2.15;;;20.00;99.90;;;;;;5092131;28;20069;-70
2023/09/12 08:32:01;;;;;;;4.28;1.25;;;19.90;99.90;;;;;;5060254;28;20032;-70
2023/09/12 08:34:27;;;;;;;4.20;1.42;;;19.90;99.90;;;;;;5057557;28;20183;-70
2023/09/12 08:36:53;;;;;;;3.60;1.58;;;19.80;99.90;;;;;;5063239;28;20310;-70
2023/09/12 08:39:24;;;;;;;3.90;1.73;;;19.90;99.90;;;;;;5059240;28;20041;-69
2023/09/12 08:41:50;;;;;;;4.15;1.45;;;19.90;99.90;;;;;;5058548;28;20064;-70
2023/09/12 08:44:16;;;;;;;4.30;2.00;;;19.90;99.90;;;;;;5056033;28;20087;-69
2023/09/12 08:46:42;;;;;;;2.88;1.42;;;20.00;99.90;;;;;;5053273;28;20041;-69
2023/09/12 08:49:09;;;;;;;3.92;2.30;;;20.00;99.90;;;;;;5058797;28;20404;-69
2023/09/12 08:51:41;;;;;;;5.00;1.95;;;20.10;99.90;;;;;;5088060;28;20036;-69
2023/09/12 08:54:10;;;;;;;4.30;1.85;;;20.20;99.90;;;;;;5057780;28;20151;-69
2023/09/12 08:56:40;;;;;;;2.35;1.60;;;20.30;99.90;;;;;;5052342;28;20128;-69
2023/09/12 08:59:07;;;;;;;5.13;1.75;;;20.30;99.90;;;;;;5056777;28;20033;-69
2023/09/12 09:01:33;;;;;;;4.47;1.95;;;20.30;99.90;;;;;;5055180;28;20033;-69
2023/09/12 09:04:02;;;;;;;5.30;2.33;;;20.20;99.90;;;;;;5056494;28;20049;-69
2023/09/12 09:06:31;;;;;;;5.90;1.88;;;20.30;99.90;;;;;;5058562;28;20433;-70
2023/09/12 09:08:57;;;;;;;5.60;2.08;;;20.50;99.90;;;;;;5053594;28;20133;-70
2023/09/12 09:11:27;;;;;;;5.05;2.22;;;20.80;99.90;;;;;;5058331;28;20032;-69
2023/09/12 09:13:54;;;;;;;3.40;1.70;;;21.10;99.90;;;;;;5088614;28;20045;-69
2023/09/12 09:16:21;;;;;;;8.77;2.65;;;21.40;99.90;;;;;;5041283;28;20400;-70
2023/09/12 09:19:00;;;;;;;6.15;2.67;;;21.70;99.90;;;;;;5055061;28;20059;-69
2023/09/12 09:21:29;;;;;;;5.35;2.22;;;21.80;99.90;;;;;;5055005;28;20107;-69
2023/09/12 09:23:56;;;;;;;4.57;2.42;;;21.90;99.90;;;;;;5089805;28;20139;-70
2023/09/12 09:26:23;;;;;;;4.65;1.95;;;21.90;99.90;;;;;;5058709;28;20051;-69
2023/09/12 09:29:09;;;;;;;5.22;2.08;;;21.80;99.90;;;;;;5062231;28;20087;-69
2023/09/12 09:31:35;;;;;;;5.30;2.25;;;21.70;99.90;;;;;;5057533;28;20233;-69
2023/09/12 09:34:01;;;;;;;2.40;1.48;;;21.60;99.90;;;;;;5092784;28;20107;-69
2023/09/12 09:36:27;;;;;;;6.53;2.92;;;21.60;99.90;;;;;;5057634;28;20040;-69
2023/09/12 09:38:56;;;;;;;3.95;1.98;;;21.70;99.90;;;;;;5054966;28;20044;-70
2023/09/12 09:41:22;;;;;;;5.53;2.58;;;22.00;99.90;;;;;;5059776;28;20082;-70
2023/09/12 09:43:52;;;;;;;4.45;2.45;;;22.40;99.90;;;;;;5057193;28;20044;-70
2023/09/12 09:46:18;;;;;;;5.28;1.95;;;22.70;99.90;;;;;;5063810;28;20098;-69
2023/09/12 09:48:51;;;;;;;6.55;2.42;;;22.90;99.90;;;;;;5059058;28;20132;-70
2023/09/12 09:51:18;;;;;;;4.22;2.17;;;23.00;99.90;;;;;;5091175;28;20040;-70
2023/09/12 09:53:43;;;;;;;5.22;2.28;;;23.00;99.90;;;;;;5062244;28;20044;-70
2023/09/12 09:56:13;;;;;;;3.83;1.90;;;23.00;99.90;;;;;;5055541;28;20044;-70
2023/09/12 09:58:51;;;;;;;3.88;2.00;;;23.10;99.90;;;;;;5061093;28;20044;-70
2023/09/12 10:01:27;;;;;;;3.80;2.05;;;24.10;99.90;;;;;;5058807;28;20088;-70
2023/09/12 10:03:58;;;;;;;2.88;1.70;;;24.80;99.90;;;;;;5041672;28;20093;-70
2023/09/12 10:06:24;;;;;;;4.15;2.33;;;25.30;99.90;;;;;;5054677;28;20048;-70
2023/09/12 10:08:52;;;;;;;5.70;2.40;;;25.90;99.90;;;;;;5059783;28;20072;-71
2023/09/12 10:11:21;;;;;;;6.15;2.67;;;26.60;99.90;;;;;;5087752;28;20045;-71
2023/09/12 10:13:54;;;;;;;5.15;2.60;;;26.80;99.90;;;;;;5047084;28;20048;-71
2023/09/12 10:16:25;;;;;;;5.37;2.37;;;26.70;99.90;;;;;;5057518;28;20056;-71
2023/09/12 10:19:18;;;;;;;4.00;1.88;;;26.30;99.90;;;;;;5081209;28;20036;-71
2023/09/12 10:21:50;;;;;;;3.60;2.20;;;25.90;99.90;;;;;;5042425;28;20143;-70
2023/09/12 10:24:16;;;;;;;3.85;1.75;;;25.70;99.90;;;;;;5088172;28;20037;-71
2023/09/12 10:26:45;;;;;;;3.15;1.38;;;25.60;99.90;;;;;;5065668;28;20282;-70
2023/09/12 10:29:14;;;;;;;3.92;1.85;;;25.90;99.90;;;;;;5059183;28;20125;-70
2023/09/12 10:31:40;;;;;;;2.55;1.25;;;26.10;99.90;;;;;;5056610;28;20298;-71
2023/09/12 10:34:09;;;;;;;3.40;1.42;;;26.00;99.90;;;;;;5059102;28;20116;-70
2023/09/12 10:36:42;;;;;;;3.88;1.90;;;25.90;99.90;;;;;;5057347;28;20041;-70
2023/09/12 10:39:11;;;;;;;2.47;1.40;;;25.80;99.90;;;;;;5061394;28;20102;-70
2023/09/12 10:41:39;;;;;;;2.50;1.13;;;25.70;99.90;;;;;;5059726;28;20072;-71
2023/09/12 10:44:16;;;;;;;2.72;1.50;;;25.50;99.90;;;;;;5059716;28;20049;-70
2023/09/12 10:46:43;;;;;;;3.15;1.52;;;25.20;99.90;;;;;;5069015;28;20048;-70
2023/09/12 10:49:12;;;;;;;2.53;1.40;;;25.20;99.90;;;;;;5064143;28;20106;-70
2023/09/12 10:51:43;;;;;;;2.40;1.15;;;25.60;99.90;;;;;;5088239;28;20104;-71
2023/09/12 10:54:12;;;;;;;4.32;1.58;;;26.10;99.90;;;;;;5060192;28;20044;-71
2023/09/12 10:56:38;;;;;;;2.72;1.08;;;26.30;99.90;;;;;;5091643;28;20044;-71
2023/09/12 10:59:06;;;;;;;2.88;1.52;;;26.40;99.90;;;;;;5058094;28;20045;-71
2023/09/12 11:01:37;;;;;;;3.22;1.38;;;26.80;99.90;;;;;;5043089;28;20048;-71
2023/09/12 11:04:23;;;;;;;1.83;1.00;;;27.20;99.90;;;;;;5055997;28;20053;-71
2023/09/12 11:06:50;;;;;;;2.92;0.90;;;27.10;99.90;;;;;;5055743;28;20424;-71
2023/09/12 11:09:18;;;;;;;1.23;0.68;;;26.80;99.90;;;;;;5087555;28;20029;-70
2023/09/12 11:11:47;;;;;;;2.75;1.13;;;26.50;99.90;;;;;;5054552;28;20567;-70
2023/09/12 11:14:15;;;;;;;2.55;1.15;;;26.20;99.90;;;;;;5041132;28;20445;-71
2023/09/12 11:16:41;;;;;;;3.05;1.20;;;26.20;99.90;;;;;;5055708;28;20094;-70
2023/09/12 11:19:14;;;;;;;3.15;0.93;;;26.60;99.90;;;;;;5059121;28;20528;-71
2023/09/12 11:21:50;;;;;;;3.35;1.30;;;26.80;99.90;;;;;;5055620;28;20045;-70
2023/09/12 11:24:17;;;;;;;1.42;0.80;;;26.60;99.90;;;;;;5056214;28;20152;-70
2023/09/12 11:26:54;;;;;;;4.13;1.23;;;26.10;99.90;;;;;;5084676;28;20119;-71
2023/09/12 11:29:20;;;;;;;2.35;1.30;;;25.70;99.90;;;;;;5085201;28;20033;-70
2023/09/12 11:31:59;;;;;;;3.63;1.25;;;25.40;99.90;;;;;;5086863;28;20090;-70
2023/09/12 11:34:31;;;;;;;3.42;1.25;;;25.10;99.90;;;;;;5089052;28;20419;-69
2023/09/12 11:37:00;;;;;;;2.20;1.00;;;25.00;99.90;;;;;;5051828;28;20033;-69
2023/09/12 11:39:34;;;;;;;2.85;1.17;;;24.90;99.90;;;;;;5042530;28;20504;-70
2023/09/12 11:42:01;;;;;;;3.92;1.42;;;24.70;99.90;;;;;;5056347;28;20074;-70
2023/09/12 11:44:27;;;;;;;2.92;1.35;;;24.60;99.90;;;;;;5054949;28;20075;-70
2023/09/12 11:46:54;;;;;;;1.60;0.88;;;24.70;99.90;;;;;;5054461;28;21221;-70
2023/09/12 11:49:20;;;;;;;1.58;0.98;;;25.40;99.90;;;;;;5055086;28;20093;-70
2023/09/12 11:51:51;;;;;;;2.15;0.95;;;26.10;99.90;;;;;;5088317;28;20045;-70
2023/09/12 11:54:26;;;;;;;3.05;1.65;;;26.20;99.90;;;;;;5079624;28;20423;-71
2023/09/12 11:56:59;;;;;;;2.95;1.40;;;26.10;99.90;;;;;;5082529;28;20052;-70
2023/09/12 11:59:26;;;;;;;1.88;1.15;;;25.70;99.90;;;;;;5084927;28;20455;-70
2023/09/12 12:01:53;;;;;;;3.75;1.33;;;25.40;99.90;;;;;;5060365;28;20187;-70
2023/09/12 12:04:23;;;;;;;1.30;0.63;;;25.20;99.90;;;;;;5055750;28;20537;-70
2023/09/12 12:06:51;;;;;;;2.17;0.65;;;25.10;99.90;;;;;;5058022;28;20396;-71
2023/09/12 12:09:19;;;;;;;1.73;0.82;;;24.90;99.90;;;;;;5047997;28;20083;-70
2023/09/12 12:11:45;;;;;;;2.13;1.02;;;24.60;99.90;;;;;;5076219;28;20052;-70
2023/09/12 12:14:13;;;;;;;1.05;0.47;;;24.60;99.90;;;;;;5053174;28;20584;-69
2023/09/12 12:16:39;;;;;;;0.88;0.47;;;24.60;99.90;;;;;;5092391;28;20047;-69
2023/09/12 12:19:05;;;;;;;2.15;1.00;;;24.50;99.90;;;;;;5057305;28;20463;-69
2023/09/12 12:21:31;;;;;;;1.50;0.70;;;24.50;99.90;;;;;;5051946;28;20055;-69
2023/09/12 12:24:02;;;;;;;2.65;1.05;;;24.40;99.90;;;;;;5054896;28;20133;-69
2023/09/12 12:26:29;;;;;;;1.70;0.90;;;24.40;99.90;;;;;;5085830;28;20040;-69
2023/09/12 12:28:55;;;;;;;2.70;0.90;;;24.50;99.90;;;;;;5057166;28;20171;-69
2023/09/12 12:31:24;;;;;;;2.53;0.82;;;24.80;99.90;;;;;;5056893;28;20460;-69
2023/09/12 12:33:53;;;;;;;3.72;0.77;;;24.90;99.90;;;;;;5055542;28;20045;-69
2023/09/12 12:36:19;;;;;;;0.80;0.43;;;25.30;99.90;;;;;;5057314;28;20041;-69
2023/09/12 12:38:47;;;;;;;1.63;0.80;;;25.20;99.90;;;;;;5055488;28;20522;-69
2023/09/12 12:41:22;;;;;;;1.08;0.60;;;25.00;99.90;;;;;;5057279;28;20258;-69
2023/09/12 12:43:54;;;;;;;1.88;1.25;;;24.80;99.90;;;;;;5055057;28;20059;-69
2023/09/12 12:46:21;;;;;;;2.05;1.15;;;24.60;99.90;;;;;;5091463;28;20669;-71
2023/09/12 12:48:47;;;;;;;1.60;0.90;;;24.40;99.90;;;;;;5053556;28;20098;-71